EW3328 Weather Reports


Display with metric or nautical units.
time (UTC)temp
F
wind
direction
speed
MPH
gust
MPH
rain 1hr
in
rain 24hr
in
rain mn
in
humidity
%
barometer
mb
20190625154310 92 45 0.0 0.0 0.00 0.00 0.00 50 1020.1
20190625153241 93 23 0.0 0.0 0.00 0.00 0.00 47 1021.2
20190625152214 93 45 0.0 0.0 0.00 0.00 0.00 46 1021.2
20190625151146 93 23 0.0 0.0 0.00 0.00 0.00 45 1021.2
20190625150122 95 45 0.0 0.0 0.00 0.00 0.00 44 1021.2
20190625145054 97 45 0.0 0.0 0.00 0.00 0.00 36 1021.2
20190625144029 95 45 0.0 0.0 0.00 0.00 0.00 35 1021.2
20190625143030 96 45 0.0 0.0 0.00 0.00 0.00 32 1021.2
20190625141955 95 45 0.0 0.0 0.00 0.00 0.00 31 1021.2
20190625140928 95 45 0.0 0.0 0.00 0.00 0.00 33 1021.2
20190625135900 95 45 0.0 0.0 0.00 0.00 0.00 33 1021.2
20190625134851 93 45 0.0 0.0 0.00 0.00 0.00 35 1021.2
20190625133849 94 45 0.0 0.0 0.00 0.00 0.00 37 1021.2
20190625132847 94 45 0.0 0.0 0.00 0.00 0.00 32 1021.2
20190625131840 92 45 0.0 0.0 0.00 0.00 0.00 37 1021.2
20190625130839 92 45 0.0 0.0 0.00 0.00 0.00 36 1021.2
20190625125812 93 45 0.0 0.0 0.00 0.00 0.00 38 1021.2
20190625124749 92 45 0.0 0.0 0.00 0.00 0.00 36 1021.2
20190625123719 92 45 0.0 0.0 0.00 0.00 0.00 36 1021.2
20190625122704 92 45 0.0 0.0 0.00 0.00 0.00 38 1021.2
20190625121636 92 45 0.0 0.0 0.00 0.00 0.00 38 1021.2
20190625120602 92 45 0.0 0.0 0.00 0.00 0.00 35 1021.2
20190625115518 91 45 0.0 0.0 0.00 0.00 0.00 38 1021.2
20190625114446 92 45 0.0 0.0 0.00 0.00 0.00 37 1021.2
20190625113417 91 45 0.0 0.0 0.00 0.00 0.00 41 1021.2
20190625112348 90 45 0.0 0.0 0.00 0.00 0.00 42 1021.2
20190625111318 90 45 0.0 0.0 0.00 0.00 0.00 40 1021.2
20190625110253 90 45 0.0 0.0 0.00 0.00 0.00 42 1021.2
20190625105224 90 45 0.0 0.0 0.00 0.00 0.00 44 1021.2
20190625104214 89 45 0.0 0.0 0.00 0.00 0.00 46 1021.2
20190625103148 89 45 0.0 0.0 0.00 0.00 0.00 42 1021.2
20190625102139 88 45 0.0 0.0 0.00 0.00 0.00 46 1021.2
20190625101115 87 45 0.0 0.0 0.00 0.00 0.00 45 1021.2
20190625100053 88 45 0.0 0.0 0.00 0.00 0.00 47 1021.2
20190625095033 87 45 0.0 0.0 0.00 0.00 0.00 47 1021.2
20190625094008 88 45 0.0 0.0 0.00 0.00 0.00 45 1021.2
20190625092946 88 45 0.0 0.0 0.00 0.00 0.00 46 1021.2
20190625091925 88 45 0.0 0.0 0.00 0.00 0.00 45 1021.2
20190625090900 87 45 0.0 0.0 0.00 0.00 0.00 48 1021.2
20190625085837 85 45 0.0 0.0 0.00 0.00 0.00 49 1021.2
20190625084816 85 45 0.0 0.0 0.00 0.00 0.00 50 1021.2
20190625083755 86 23 0.0 0.0 0.00 0.00 0.00 51 1021.2
20190625082729 85 23 0.0 0.0 0.00 0.00 0.00 49 1021.2
20190625081704 84 23 0.0 0.0 0.00 0.00 0.00 48 1021.2
20190625080631 85 45 0.0 0.0 0.00 0.00 0.00 52 1021.2
20190625075611 83 23 0.0 0.0 0.00 0.00 0.00 51 1021.2
20190625074549 82 23 0.0 0.0 0.00 0.00 0.00 52 1021.2
20190625073522 83 45 0.0 0.0 0.00 0.00 0.00 51 1021.2
20190625072501 81 23 0.0 0.0 0.00 0.00 0.00 52 1021.2
20190625071438 82 23 0.0 0.0 0.00 0.00 0.00 55 1021.2
20190625070414 81 23 0.0 0.0 0.00 0.00 0.00 57 1021.2
20190625065350 80 23 0.0 0.0 0.00 0.00 0.00 59 1021.2
20190625064327 79 23 0.0 0.0 0.00 0.00 0.00 60 1021.2
20190625063306 78 23 0.0 0.0 0.00 0.00 0.00 64 1021.2
20190625062241 77 23 0.0 0.0 0.00 0.00 0.00 66 1021.2
20190625061220 75 23 0.0 0.0 0.00 0.00 0.00 69 1021.2
20190625060159 71 23 0.0 0.0 0.00 0.00 0.00 79 1021.2
20190625055138 69 23 0.0 0.0 0.00 0.00 0.00 83 1021.2
20190625054111 66 23 0.0 0.0 0.00 0.00 0.00 87 1021.2
20190625053049 63 23 0.0 0.0 0.00 0.00 0.00 93 1021.2
20190625052030 60 23 0.0 0.0 0.00 0.00 0.00 94 1021.2
20190625050957 59 23 0.0 0.0 0.00 0.00 0.00 94 1021.2
20190625045930 58 23 0.0 0.0 0.00 0.00 0.00 95 1021.2
20190625044908 58 23 0.0 0.0 0.00 0.00 0.00 95 1021.2
20190625043845 58 23 0.0 0.0 0.00 0.00 0.00 95 1021.2
20190625042819 57 23 0.0 0.0 0.00 0.00 0.00 95 1021.2
20190625041757 58 23 0.0 0.0 0.00 0.00 0.00 95 1021.2
20190625040742 57 23 0.0 0.0 0.00 0.00 0.00 95 1021.2
20190625035720 57 23 0.0 0.0 0.00 0.00 0.00 95 1021.2
20190625034712 57 23 0.0 0.0 0.00 0.00 0.00 95 1021.2
20190625033703 57 23 0.0 0.0 0.00 0.00 0.00 95 1021.2
20190625032654 57 23 0.0 0.0 0.00 0.00 0.00 95 1021.2
20190625031652 57 23 0.0 0.0 0.00 0.00 0.00 95 1021.2
20190625030644 57 23 0.0 0.0 0.00 0.00 0.00 95 1021.2
20190625025640 57 23 0.0 0.0 0.00 0.00 0.00 95 1021.2
20190625024636 57 23 0.0 0.0 0.00 0.00 0.00 95 1021.2
20190625023628 57 23 0.0 0.0 0.00 0.00 0.00 95 1021.2
20190625022620 57 23 0.0 0.0 0.00 0.00 0.00 95 1021.2
20190625021613 57 23 0.0 0.0 0.00 0.00 0.00 95 1021.2
20190625020556 57 23 0.0 0.0 0.00 0.00 0.00 95 1021.2
20190625015547 57 23 0.0 0.0 0.00 0.00 0.00 94 1021.2
20190625014538 57 23 0.0 0.0 0.00 0.00 0.00 94 1022.3
20190625013526 57 23 0.0 0.0 0.00 0.00 0.00 94 1022.3
20190625012516 58 23 0.0 0.0 0.00 0.00 0.00 93 1022.3
20190625011505 58 23 0.0 0.0 0.00 0.00 0.00 93 1022.3
20190625010446 58 23 0.0 0.0 0.00 0.00 0.00 93 1022.3
20190625005434 58 23 0.0 0.0 0.00 0.00 0.00 93 1022.3
20190625004427 59 23 0.0 0.0 0.00 0.00 0.00 92 1022.3
20190625003420 59 23 0.0 0.0 0.00 0.00 0.00 92 1022.3
20190625002413 59 23 0.0 0.0 0.00 0.00 0.00 92 1022.3
20190625001403 59 23 0.0 0.0 0.00 0.00 0.00 90 1022.3
20190625000351 59 23 0.0 0.0 0.00 0.00 0.00 90 1022.3
20190624235341 60 23 0.0 0.0 0.00 0.00 0.00 90 1022.3
20190624234325 60 23 0.0 0.0 0.00 0.01 0.00 90 1022.3
20190624233310 60 23 0.0 0.0 0.00 0.01 0.00 89 1022.3
20190624232301 61 23 0.0 0.0 0.00 0.01 0.00 89 1022.3
20190624231249 61 23 0.0 0.0 0.00 0.01 0.00 89 1022.3
20190624230231 61 23 0.0 0.0 0.00 0.01 0.00 89 1022.3
20190624225215 61 23 0.0 0.0 0.00 0.01 0.00 88 1022.3
20190624224150 62 23 0.0 0.0 0.00 0.01 0.00 88 1023.3
20190624223130 62 23 0.0 0.0 0.00 0.01 0.00 87 1023.3
20190624222108 62 23 0.0 0.0 0.00 0.01 0.00 87 1023.3
20190624221049 63 23 0.0 0.0 0.00 0.01 0.00 86 1023.3
20190624220031 62 23 0.0 0.0 0.00 0.01 0.00 86 1022.3
20190624215006 63 23 0.0 0.0 0.00 0.01 0.01 86 1022.3
20190624213944 63 23 0.0 0.0 0.00 0.01 0.01 85 1023.3
20190624212918 63 23 0.0 0.0 0.00 0.01 0.01 85 1022.3
20190624211858 63 23 0.0 0.0 0.00 0.01 0.01 84 1022.3
20190624210859 64 23 0.0 0.0 0.00 0.01 0.01 83 1023.3
20190624205841 65 23 0.0 0.0 0.00 0.01 0.01 80 1022.3
20190624204814 65 23 0.0 0.0 0.00 0.01 0.01 80 1022.3
20190624203746 66 23 0.0 0.0 0.00 0.01 0.01 79 1023.3
20190624202715 66 23 0.0 0.0 0.00 0.01 0.01 79 1022.3
20190624201709 66 23 0.0 0.0 0.00 0.01 0.01 78 1022.3
20190624200639 67 23 0.0 0.0 0.00 0.01 0.01 78 1022.3
20190624195606 67 23 0.0 0.0 0.00 0.01 0.01 77 1022.3
20190624194537 68 23 0.0 0.0 0.00 0.01 0.01 74 1022.3
20190624193502 69 23 0.0 0.0 0.00 0.01 0.01 74 1022.3
20190624192409 69 23 0.0 0.0 0.00 0.01 0.01 71 1022.3
20190624191341 70 23 0.0 0.0 0.00 0.01 0.01 71 1022.3
20190624190311 70 23 0.0 0.0 0.00 0.02 0.01 70 1021.2
20190624185235 71 23 0.0 0.0 0.00 0.07 0.01 68 1021.2
20190624184204 72 23 0.0 0.0 0.00 0.11 0.01 68 1021.2
20190624183128 73 23 0.0 0.0 0.00 0.13 0.01 67 1021.2
20190624182056 73 23 0.0 0.0 0.00 0.15 0.01 66 1021.2
20190624181022 74 23 0.0 0.0 0.00 0.15 0.01 65 1021.2
20190624175948 75 23 0.0 0.0 0.00 0.15 0.01 61 1021.2
20190624174907 77 23 0.0 0.0 0.00 0.15 0.01 59 1021.2
20190624173841 78 23 0.0 0.0 0.00 0.15 0.01 57 1021.2
20190624172816 79 23 0.0 0.0 0.00 0.15 0.01 58 1021.2
20190624171755 79 23 0.0 0.0 0.00 0.15 0.01 58 1021.2
20190624170731 80 23 0.0 0.0 0.00 0.15 0.01 57 1020.1
20190624165710 80 23 0.0 0.0 0.00 0.15 0.01 56 1021.2
20190624164640 78 23 0.0 0.0 0.00 0.15 0.01 58 1021.2
20190624163620 80 23 0.0 0.0 0.00 0.15 0.01 54 1021.2
20190624162553 81 23 0.0 0.0 0.00 0.15 0.01 54 1021.2
20190624161532 81 23 0.0 0.0 0.00 0.15 0.01 56 1021.2
20190624160516 81 23 0.0 0.0 0.00 0.15 0.01 55 1021.2
20190624155450 81 23 0.0 0.0 0.00 0.15 0.01 54 1021.2